Portada
METAR-TAF:

METAR-TAF

Aeroports :

Aeroport de Múrcia-San Javier

Múrcia, Espanya

latitud: 37-47N, longitud: 000-48W, altitud: 5 m

Observació

L'informe es va fer fa 31 minuts, a les 05:00 UTC
Vent 3 kt del Oest/Sud-Oest, variant entre Sud/Sud-Oest i Nord-Oest
Temperatura 6°C
Humitat 100%
Pressió 1030 hPa
Visibilitat: 9000 m

METAR: LELC 180500Z AUTO 25003KT 210V310 9000 NSC 06/06 Q1030

Hora: 06:31 (05:31 UTC)

Pronòstic

L'informe es va fer fa 6 hores i 31 minuts, a les 23:00 UTC
Pronòstic vàlid del 18 a les 00 UTC al 18 a les 24 UTC
Vent 4 kt del Nord/Nord-Oest
Visibilitat 10 km o més
Escasses núvols a una alçada de 3000 ft
Probabilitat 30% :
Temporalment
l' 18 a les 10 UTC al 18 a les 13 UTC
pluja
Evolucionant progressivament
l' 18 a les 12 UTC al 18 a les 14 UTC
Vent 10 kt del Sud-Oest

TAF: LELC 172300Z 1800/1824 33004KT 9999 FEW030 TX16/1815Z TN07/1806Z PROB30 TEMPO 1810/1813 RA BECMG 1812/1814 23010KT

Observacions i pronòstics meteorològics de més de 4000 aeroports (METAR i TAF).

Les estacions disponibles són els punts grocs i vermells al mapa.

Posi el ratolí al punt desitjat per veure el nom de l'estació.

Feu clic per veure les observacions i els pronòstics meteorològics.

Per canviar el mapa: feu clic els botons verds amb una creu de color negre per apropar; al botó verd amb un guió per allunyar la imatge; o en les fletxes verdes per a mapes adjacents.


METAR-TAF: